createdAt,value
2022-12-18T00:01:19.871Z,-5.99
2022-12-18T00:03:47.123Z,-6.01
2022-12-18T00:06:14.873Z,-5.95
2022-12-18T00:08:42.015Z,-5.99
2022-12-18T00:11:09.550Z,-6.12
2022-12-18T00:13:36.599Z,-6.07
2022-12-18T00:16:07.924Z,-6.08
2022-12-18T00:18:34.596Z,-6.04
2022-12-18T00:21:02.223Z,-6.02
2022-12-18T00:23:29.454Z,-6.08
2022-12-18T00:25:56.232Z,-6.07
2022-12-18T00:28:22.782Z,-6.10
2022-12-18T00:30:52.456Z,-6.10
2022-12-18T00:33:19.102Z,-5.99
2022-12-18T00:35:45.786Z,-6.05
2022-12-18T00:38:12.425Z,-6.09
2022-12-18T00:40:39.013Z,-6.10
2022-12-18T00:43:05.600Z,-6.06
2022-12-18T00:45:32.604Z,-6.11
2022-12-18T00:47:59.380Z,-6.05
2022-12-18T00:50:26.152Z,-6.07
2022-12-18T00:52:52.784Z,-6.10
2022-12-18T00:55:19.956Z,-6.08
2022-12-18T00:57:46.590Z,-6.11
2022-12-18T01:00:15.351Z,-6.10
2022-12-18T01:02:42.640Z,-6.07
2022-12-18T01:05:10.106Z,-6.14
2022-12-18T01:07:36.667Z,-6.03
2022-12-18T01:10:04.120Z,-6.14
2022-12-18T01:12:30.730Z,-6.16
2022-12-18T01:14:57.672Z,-6.16
2022-12-18T01:17:24.251Z,-6.15
2022-12-18T01:19:50.989Z,-6.15
2022-12-18T01:22:17.565Z,-6.13
2022-12-18T01:24:44.159Z,-6.21
2022-12-18T01:27:10.778Z,-6.16
2022-12-18T01:29:37.356Z,-6.22
2022-12-18T01:32:04.132Z,-6.22
2022-12-18T01:34:33.113Z,-6.27
2022-12-18T01:36:59.720Z,-6.25
2022-12-18T01:39:26.540Z,-6.18
2022-12-18T01:42:05.285Z,-6.22
2022-12-18T01:44:50.576Z,-6.30
2022-12-18T01:47:28.618Z,-6.20
2022-12-18T01:49:56.204Z,-6.18
2022-12-18T01:52:23.641Z,-6.25
2022-12-18T01:54:55.375Z,-6.20
2022-12-18T01:57:22.134Z,-6.26
2022-12-18T01:59:50.682Z,-6.20
2022-12-18T02:02:17.867Z,-6.20
2022-12-18T02:04:49.429Z,-6.19
2022-12-18T02:07:16.393Z,-6.23
2022-12-18T02:09:49.877Z,-6.23
2022-12-18T02:12:21.265Z,-6.18
2022-12-18T02:14:56.108Z,-6.17
2022-12-18T02:17:25.995Z,-6.27
2022-12-18T02:19:58.798Z,-6.34
2022-12-18T02:22:32.061Z,-6.31
2022-12-18T02:25:04.031Z,-6.25
2022-12-18T02:27:32.399Z,-6.29
2022-12-18T02:30:00.598Z,-6.24
2022-12-18T02:32:29.142Z,-6.32
2022-12-18T02:34:57.528Z,-6.27
2022-12-18T02:37:25.902Z,-6.22
2022-12-18T02:39:55.370Z,-6.30
2022-12-18T02:42:22.946Z,-6.33
2022-12-18T02:44:51.180Z,-6.34
2022-12-18T02:47:22.115Z,-6.27
2022-12-18T02:49:54.838Z,-6.29
2022-12-18T02:52:33.528Z,-6.25
2022-12-18T02:55:14.253Z,-6.36
2022-12-18T02:57:51.419Z,-6.43
2022-12-18T03:00:40.603Z,-6.32
2022-12-18T03:03:15.321Z,-6.35
2022-12-18T03:06:03.058Z,-6.41
2022-12-18T03:08:32.429Z,-6.44
2022-12-18T03:11:03.393Z,-6.36
2022-12-18T03:13:37.151Z,-6.39
2022-12-18T03:16:06.943Z,-6.47
2022-12-18T03:18:39.538Z,-6.49
2022-12-18T03:21:06.952Z,-6.44
2022-12-18T03:23:36.283Z,-6.50
2022-12-18T03:26:07.687Z,-6.49
2022-12-18T03:28:37.920Z,-6.49
2022-12-18T03:31:06.613Z,-6.46
2022-12-18T03:33:39.385Z,-6.54
2022-12-18T03:36:06.452Z,-6.57
2022-12-18T03:38:33.087Z,-6.47
2022-12-18T03:41:31.877Z,-6.40
2022-12-18T03:44:05.581Z,-6.47
2022-12-18T03:46:42.172Z,-6.48
2022-12-18T03:49:15.686Z,-6.37
2022-12-18T03:51:47.071Z,-6.47
2022-12-18T03:54:14.282Z,-6.51
2022-12-18T03:56:43.053Z,-6.52
2022-12-18T03:59:11.332Z,-6.58
2022-12-18T04:01:43.126Z,-6.55
2022-12-18T04:04:11.516Z,-6.55
2022-12-18T04:06:38.787Z,-6.63
2022-12-18T04:09:06.050Z,-6.59
2022-12-18T04:11:32.687Z,-6.62
2022-12-18T04:13:59.762Z,-6.62
2022-12-18T04:16:27.203Z,-6.57
2022-12-18T04:18:54.076Z,-6.57
2022-12-18T04:21:21.088Z,-6.60
2022-12-18T04:23:47.788Z,-6.58
2022-12-18T04:26:14.357Z,-6.62
2022-12-18T04:28:40.919Z,-6.67
2022-12-18T04:31:07.832Z,-6.68
2022-12-18T04:33:34.563Z,-6.64
2022-12-18T04:36:01.210Z,-6.70
2022-12-18T04:38:32.912Z,-6.73
2022-12-18T04:41:00.803Z,-6.68
2022-12-18T04:43:27.767Z,-6.69
2022-12-18T04:45:54.433Z,-6.66
2022-12-18T04:48:21.556Z,-6.62
2022-12-18T04:50:48.162Z,-6.67
2022-12-18T04:53:14.737Z,-6.71
2022-12-18T04:55:41.378Z,-6.80
2022-12-18T04:58:08.028Z,-6.76
2022-12-18T05:00:36.288Z,-6.79
2022-12-18T05:03:03.864Z,-6.73
2022-12-18T05:05:30.582Z,-6.80
2022-12-18T05:07:57.235Z,-6.80
2022-12-18T05:10:23.865Z,-6.86
2022-12-18T05:13:00.960Z,-6.79
2022-12-18T05:15:28.860Z,-6.73
2022-12-18T05:17:56.683Z,-6.79
2022-12-18T05:20:23.382Z,-6.78
2022-12-18T05:22:50.060Z,-6.84
2022-12-18T05:25:16.764Z,-6.85
2022-12-18T05:27:43.421Z,-6.86
2022-12-18T05:30:10.905Z,-6.87
2022-12-18T05:32:37.574Z,-6.89
2022-12-18T05:35:04.585Z,-6.89
2022-12-18T05:37:31.183Z,-6.92
2022-12-18T05:39:57.800Z,-6.88
2022-12-18T05:42:24.522Z,-6.88
2022-12-18T05:44:51.168Z,-6.90
2022-12-18T05:47:17.893Z,-6.89
2022-12-18T05:49:57.357Z,-7.01
2022-12-18T05:52:24.211Z,-6.87
2022-12-18T05:54:50.873Z,-6.89
2022-12-18T05:57:17.493Z,-6.92
2022-12-18T05:59:44.131Z,-6.84
2022-12-18T06:02:19.089Z,-6.85
2022-12-18T06:04:47.382Z,-6.84
2022-12-18T06:07:14.033Z,-6.88
2022-12-18T06:09:40.592Z,-6.84
2022-12-18T06:12:07.355Z,-6.85
2022-12-18T06:14:33.965Z,-6.91
2022-12-18T06:17:00.582Z,-6.91
2022-12-18T06:19:27.209Z,-6.85
2022-12-18T06:21:54.228Z,-6.84
2022-12-18T06:24:37.076Z,-6.92
2022-12-18T06:27:03.652Z,-6.94
2022-12-18T06:29:30.331Z,-6.90
2022-12-18T06:31:56.987Z,-6.84
2022-12-18T06:34:23.609Z,-6.90
2022-12-18T06:36:50.177Z,-6.94
2022-12-18T06:39:19.892Z,-6.84
2022-12-18T06:41:46.494Z,-6.95
2022-12-18T06:44:13.146Z,-6.81
2022-12-18T06:46:40.184Z,-6.89
2022-12-18T06:49:07.191Z,-6.79
2022-12-18T06:51:33.826Z,-6.87
2022-12-18T06:54:00.455Z,-6.79
2022-12-18T06:56:27.156Z,-6.68
2022-12-18T06:58:53.946Z,-6.67
2022-12-18T07:01:20.634Z,-6.71
2022-12-18T07:03:47.578Z,-6.77
2022-12-18T07:06:15.151Z,-6.65
2022-12-18T07:08:41.885Z,-6.70
2022-12-18T07:11:08.507Z,-6.70
2022-12-18T07:16:24.895Z,-6.60
2022-12-18T07:18:52.162Z,-6.54
2022-12-18T07:21:20.167Z,-6.55
2022-12-18T07:23:49.200Z,-6.53
2022-12-18T07:26:17.434Z,-6.58
2022-12-18T07:28:44.842Z,-6.59
2022-12-18T07:31:13.127Z,-6.56
2022-12-18T07:33:40.462Z,-6.44
2022-12-18T07:36:08.440Z,-6.44
2022-12-18T07:38:36.049Z,-6.48
2022-12-18T07:41:03.294Z,-6.47
2022-12-18T07:43:30.186Z,-6.54
2022-12-18T07:45:56.822Z,-6.60
2022-12-18T07:48:23.434Z,-6.37
2022-12-18T07:50:50.274Z,-6.42
2022-12-18T07:53:16.879Z,-6.42
2022-12-18T07:56:11.181Z,-6.48
2022-12-18T07:58:30.224Z,-6.47
2022-12-18T08:01:03.801Z,-6.41
2022-12-18T08:03:30.430Z,-6.30
2022-12-18T08:06:15.308Z,-6.44
2022-12-18T08:08:43.283Z,-6.30
2022-12-18T08:11:09.847Z,-6.14
2022-12-18T08:13:36.655Z,-6.23
2022-12-18T08:16:04.946Z,-6.30
2022-12-18T08:18:33.250Z,-6.25
2022-12-18T08:21:08.153Z,-6.16
2022-12-18T08:23:39.299Z,-6.13
2022-12-18T08:26:08.878Z,-6.25
2022-12-18T08:28:35.716Z,-6.21
2022-12-18T08:31:02.451Z,-6.24
2022-12-18T08:33:29.684Z,-6.30
2022-12-18T08:35:56.328Z,-6.19
2022-12-18T08:38:23.951Z,-6.19
2022-12-18T08:40:50.581Z,-6.23
2022-12-18T08:43:35.657Z,-6.28
2022-12-18T08:46:02.355Z,-6.21
2022-12-18T08:48:28.964Z,-6.33
2022-12-18T08:50:59.313Z,-6.18
2022-12-18T08:53:26.960Z,-6.17
2022-12-18T08:55:57.608Z,-6.13
2022-12-18T08:58:24.183Z,-6.11
2022-12-18T09:00:50.843Z,-6.12
2022-12-18T09:03:18.597Z,-6.09
2022-12-18T09:05:46.908Z,-6.07
2022-12-18T09:08:13.561Z,-6.15
2022-12-18T09:10:44.428Z,-6.08
2022-12-18T09:13:11.744Z,-6.05
2022-12-18T09:15:56.927Z,-6.14
2022-12-18T09:18:24.481Z,-5.98
2022-12-18T09:20:54.202Z,-5.95
2022-12-18T09:23:21.518Z,-5.96
2022-12-18T09:25:48.417Z,-5.90
2022-12-18T09:28:16.171Z,-6.05
2022-12-18T09:30:45.319Z,-5.96
2022-12-18T09:33:12.229Z,-5.97
2022-12-18T09:35:39.867Z,-5.81
2022-12-18T09:38:07.438Z,-5.80
2022-12-18T09:40:35.698Z,-5.86
2022-12-18T09:43:05.444Z,-5.95
2022-12-18T09:45:45.248Z,-5.89
2022-12-18T09:48:16.960Z,-5.72
2022-12-18T09:50:44.021Z,-5.82
2022-12-18T09:53:17.362Z,-5.82
2022-12-18T09:55:46.160Z,-5.71
2022-12-18T09:58:20.291Z,-5.79
2022-12-18T10:00:46.920Z,-5.72
2022-12-18T10:03:15.730Z,-5.72
2022-12-18T10:06:02.159Z,-5.83
2022-12-18T10:08:47.129Z,-5.80
2022-12-18T10:11:17.011Z,-5.91
2022-12-18T10:14:02.626Z,-5.86
2022-12-18T10:16:36.945Z,-5.90
2022-12-18T10:19:35.760Z,-5.75
2022-12-18T10:22:15.820Z,-5.78
2022-12-18T10:24:47.331Z,-5.80
2022-12-18T10:27:17.725Z,-5.75
2022-12-18T10:29:45.091Z,-5.66
2022-12-18T10:32:18.758Z,-5.72
2022-12-18T10:34:49.416Z,-5.83
2022-12-18T10:37:18.098Z,-5.83
2022-12-18T10:39:44.774Z,-5.80
2022-12-18T10:42:17.097Z,-5.78
2022-12-18T10:44:43.715Z,-5.84
2022-12-18T10:47:13.863Z,-5.87
2022-12-18T10:49:49.985Z,-5.88
2022-12-18T10:52:24.062Z,-5.97
2022-12-18T10:54:53.523Z,-5.77
2022-12-18T10:57:29.565Z,-5.92
2022-12-18T10:59:57.978Z,-6.00
2022-12-18T11:02:38.075Z,-5.99
2022-12-18T11:05:26.695Z,-6.04
2022-12-18T11:07:57.536Z,-5.89
2022-12-18T11:10:27.488Z,-6.03
2022-12-18T11:12:56.410Z,-6.01
2022-12-18T11:15:27.488Z,-6.02
2022-12-18T11:17:54.275Z,-6.12
2022-12-18T11:20:36.675Z,-6.10
2022-12-18T11:23:06.637Z,-6.15
2022-12-18T11:25:35.626Z,-6.02
2022-12-18T11:28:04.237Z,-5.98
2022-12-18T11:30:30.841Z,-6.04
2022-12-18T11:33:04.284Z,-6.02
2022-12-18T11:35:31.051Z,-6.02
2022-12-18T11:38:00.805Z,-6.12
2022-12-18T11:40:41.035Z,-6.14
2022-12-18T11:43:11.437Z,-6.05
2022-12-18T11:45:53.817Z,-6.18
2022-12-18T11:48:24.013Z,-6.00
2022-12-18T11:50:52.627Z,-5.98
2022-12-18T11:53:20.028Z,-6.11
2022-12-18T11:55:52.680Z,-6.13
2022-12-18T11:58:33.673Z,-6.09
2022-12-18T12:01:03.283Z,-6.10
2022-12-18T12:03:52.085Z,-6.10
2022-12-18T12:06:30.531Z,-6.08
2022-12-18T12:09:04.668Z,-6.15
2022-12-18T12:11:31.333Z,-6.13
2022-12-18T12:14:09.201Z,-6.14
2022-12-18T12:16:43.205Z,-6.17
2022-12-18T12:19:29.916Z,-6.16
2022-12-18T12:21:56.476Z,-6.18
2022-12-18T12:24:41.691Z,-6.19
2022-12-18T12:27:27.023Z,-6.18
2022-12-18T12:29:53.622Z,-6.23
2022-12-18T12:32:26.070Z,-6.18
2022-12-18T12:35:09.438Z,-6.30
2022-12-18T12:37:36.559Z,-6.30
2022-12-18T12:40:15.280Z,-6.31
2022-12-18T12:43:12.759Z,-6.22
2022-12-18T12:46:05.681Z,-6.28
2022-12-18T12:48:45.760Z,-6.33
2022-12-18T12:51:22.949Z,-6.25
2022-12-18T12:53:50.237Z,-6.27
2022-12-18T12:56:19.110Z,-6.22
2022-12-18T12:59:04.625Z,-6.35
2022-12-18T13:01:57.849Z,-6.28
2022-12-18T13:04:30.526Z,-6.33
2022-12-18T13:07:00.175Z,-6.32
2022-12-18T13:09:31.703Z,-6.31
2022-12-18T13:12:23.719Z,-6.29
2022-12-18T13:14:50.554Z,-6.29
2022-12-18T13:17:20.973Z,-6.34
2022-12-18T13:20:06.802Z,-6.35
2022-12-18T13:22:36.684Z,-6.29
2022-12-18T13:25:04.210Z,-6.31
2022-12-18T13:27:46.652Z,-6.26
2022-12-18T13:30:34.353Z,-6.23
2022-12-18T13:33:30.455Z,-6.27
2022-12-18T13:36:03.180Z,-6.21
2022-12-18T13:38:32.986Z,-6.29
2022-12-18T13:41:00.904Z,-6.22
2022-12-18T13:43:44.619Z,-6.33
2022-12-18T13:46:31.158Z,-6.25
2022-12-18T13:49:01.179Z,-6.25
2022-12-18T13:51:28.821Z,-6.31
2022-12-18T13:53:58.782Z,-6.32
2022-12-18T13:56:27.299Z,-6.29
2022-12-18T13:59:15.924Z,-6.32
2022-12-18T14:02:04.317Z,-6.35
2022-12-18T14:04:31.229Z,-6.32
2022-12-18T14:07:08.512Z,-6.37
2022-12-18T14:09:41.618Z,-6.32
2022-12-18T14:12:41.337Z,-6.35
2022-12-18T14:15:18.734Z,-6.29
2022-12-18T14:17:45.553Z,-6.33
2022-12-18T14:20:16.577Z,-6.41
2022-12-18T14:22:48.065Z,-6.35
2022-12-18T14:25:17.179Z,-6.38
2022-12-18T14:27:45.841Z,-6.43
2022-12-18T14:30:24.471Z,-6.39
2022-12-18T14:33:00.969Z,-6.51
2022-12-18T14:35:27.626Z,-6.55
2022-12-18T14:37:55.186Z,-6.57
2022-12-18T14:40:21.823Z,-6.62
2022-12-18T14:42:48.408Z,-6.57
2022-12-18T14:45:40.929Z,-6.60
2022-12-18T14:48:10.833Z,-6.65
2022-12-18T14:50:39.616Z,-6.59
2022-12-18T14:53:06.243Z,-6.66
2022-12-18T14:55:32.919Z,-6.59
2022-12-18T14:57:59.539Z,-6.67
2022-12-18T15:00:26.880Z,-6.66
2022-12-18T15:02:55.359Z,-6.80
2022-12-18T15:05:28.648Z,-6.84
2022-12-18T15:07:56.611Z,-6.71
2022-12-18T15:10:24.994Z,-6.76
2022-12-18T15:13:01.639Z,-6.73
2022-12-18T15:15:34.334Z,-6.79
2022-12-18T15:18:01.997Z,-6.78
2022-12-18T15:20:28.855Z,-6.86
2022-12-18T15:22:55.491Z,-6.89
2022-12-18T15:25:27.864Z,-6.90
2022-12-18T15:27:54.636Z,-6.97
2022-12-18T15:30:25.339Z,-6.97
2022-12-18T15:32:52.673Z,-6.91
2022-12-18T15:35:26.136Z,-6.89
2022-12-18T15:37:53.290Z,-6.99
2022-12-18T15:40:22.015Z,-6.91
2022-12-18T15:43:07.843Z,-6.94
2022-12-18T15:45:34.522Z,-7.03
2022-12-18T15:48:03.801Z,-7.01
2022-12-18T15:50:30.409Z,-7.15
2022-12-18T15:52:57.608Z,-7.16
2022-12-18T15:55:43.579Z,-7.19
2022-12-18T15:58:10.866Z,-7.27
2022-12-18T16:00:39.049Z,-7.30
2022-12-18T16:03:06.193Z,-7.30
2022-12-18T16:05:33.093Z,-7.44
2022-12-18T16:07:59.800Z,-7.53
2022-12-18T16:10:27.467Z,-7.48
2022-12-18T16:12:54.187Z,-7.49
2022-12-18T16:15:24.546Z,-7.44
2022-12-18T16:17:52.863Z,-7.57
2022-12-18T16:20:21.761Z,-7.59
2022-12-18T16:22:49.305Z,-7.73
2022-12-18T16:25:21.176Z,-7.65
2022-12-18T16:27:47.797Z,-7.70
2022-12-18T16:30:19.194Z,-7.70
2022-12-18T16:32:45.889Z,-7.81
2022-12-18T16:35:13.573Z,-7.83
2022-12-18T16:37:40.538Z,-8.06
2022-12-18T16:40:09.920Z,-8.06
2022-12-18T16:42:37.449Z,-8.19
2022-12-18T16:45:04.623Z,-8.22
2022-12-18T16:47:31.219Z,-8.32
2022-12-18T16:49:57.804Z,-8.23
2022-12-18T16:52:24.431Z,-8.31
2022-12-18T16:54:51.110Z,-8.40
2022-12-18T16:57:18.867Z,-8.52
2022-12-18T16:59:46.050Z,-8.54
2022-12-18T17:02:24.318Z,-8.52
2022-12-18T17:04:53.632Z,-8.48
2022-12-18T17:07:20.284Z,-8.52
2022-12-18T17:09:46.953Z,-8.47
2022-12-18T17:12:13.593Z,-8.49
2022-12-18T17:14:40.335Z,-8.39
2022-12-18T17:17:20.941Z,-8.65
2022-12-18T17:19:48.899Z,-8.56
2022-12-18T17:22:15.585Z,-8.72
2022-12-18T17:24:44.801Z,-8.93
2022-12-18T17:27:11.649Z,-8.85
2022-12-18T17:29:42.453Z,-8.92
2022-12-18T17:32:13.482Z,-9.14
2022-12-18T17:34:40.210Z,-9.00
2022-12-18T17:37:07.001Z,-9.07
2022-12-18T17:39:33.869Z,-9.22
2022-12-18T17:42:01.410Z,-9.16
2022-12-18T17:44:28.100Z,-9.11
2022-12-18T17:46:55.115Z,-9.21
2022-12-18T17:49:22.059Z,-9.24
2022-12-18T17:51:48.947Z,-9.29
2022-12-18T17:54:15.644Z,-9.42
2022-12-18T17:59:38.082Z,-9.45
2022-12-18T18:02:04.876Z,-9.27
2022-12-18T18:04:31.781Z,-9.42
2022-12-18T18:06:58.425Z,-9.44
2022-12-18T18:09:25.167Z,-9.51
2022-12-18T18:12:10.070Z,-9.69
2022-12-18T18:14:36.742Z,-9.62
2022-12-18T18:17:04.890Z,-9.85
2022-12-18T18:19:32.151Z,-9.80
2022-12-18T18:21:58.810Z,-9.94
2022-12-18T18:24:28.243Z,-9.93
2022-12-18T18:26:56.351Z,-9.81
2022-12-18T18:29:25.422Z,-9.84
2022-12-18T18:31:53.611Z,-9.97
2022-12-18T18:34:24.617Z,-9.88
2022-12-18T18:36:51.361Z,-10.09
2022-12-18T18:39:18.084Z,-10.13
2022-12-18T18:41:48.091Z,-10.16
2022-12-18T18:44:15.838Z,-10.22
2022-12-18T18:46:42.537Z,-10.30
2022-12-18T18:49:09.735Z,-10.47
2022-12-18T18:51:36.375Z,-10.35
2022-12-18T18:54:03.168Z,-10.18
2022-12-18T18:59:17.064Z,-10.41
2022-12-18T19:01:44.404Z,-10.54
2022-12-18T19:04:11.203Z,-10.54
2022-12-18T19:06:37.897Z,-10.60
2022-12-18T19:09:06.761Z,-10.69
2022-12-18T19:11:52.457Z,-10.73
2022-12-18T19:14:19.403Z,-10.89
2022-12-18T19:16:46.125Z,-11.03
2022-12-18T19:19:13.400Z,-11.20
2022-12-18T19:21:40.395Z,-11.14
2022-12-18T19:24:07.392Z,-11.29
2022-12-18T19:26:34.451Z,-11.25
2022-12-18T19:29:04.772Z,-11.35
2022-12-18T19:31:35.555Z,-11.35
2022-12-18T19:34:03.451Z,-11.28
2022-12-18T19:36:31.123Z,-11.45
2022-12-18T19:38:59.514Z,-11.38
2022-12-18T19:41:27.553Z,-11.38
2022-12-18T19:43:57.824Z,-11.25
2022-12-18T19:46:24.500Z,-11.25
2022-12-18T19:48:51.339Z,-11.57
2022-12-18T19:51:20.265Z,-11.43
2022-12-18T19:53:47.343Z,-11.51
2022-12-18T19:56:15.748Z,-11.55
2022-12-18T19:58:42.715Z,-11.43
2022-12-18T20:01:09.537Z,-11.39
2022-12-18T20:03:38.430Z,-11.30
2022-12-18T20:06:35.278Z,-11.51
2022-12-18T20:09:07.171Z,-11.51
2022-12-18T20:11:40.125Z,-11.42
2022-12-18T20:14:08.523Z,-11.44
2022-12-18T20:16:35.371Z,-11.46
2022-12-18T20:19:02.439Z,-11.65
2022-12-18T20:21:29.655Z,-11.73
2022-12-18T20:23:56.318Z,-11.54
2022-12-18T20:26:24.079Z,-11.64
2022-12-18T20:28:50.845Z,-11.72
2022-12-18T20:31:17.555Z,-11.67
2022-12-18T20:33:45.177Z,-11.75
2022-12-18T20:36:17.020Z,-11.71
2022-12-18T20:38:48.184Z,-11.73
2022-12-18T20:41:18.787Z,-11.83
2022-12-18T20:43:45.691Z,-11.78
2022-12-18T20:46:13.364Z,-11.83
2022-12-18T20:48:40.381Z,-11.82
2022-12-18T20:51:08.720Z,-11.76
2022-12-18T20:53:35.577Z,-11.55
2022-12-18T20:56:06.356Z,-11.69
2022-12-18T20:58:33.056Z,-11.78
2022-12-18T21:01:04.092Z,-11.89
2022-12-18T21:03:30.728Z,-11.91
2022-12-18T21:05:57.410Z,-11.75
2022-12-18T21:08:24.037Z,-11.82
2022-12-18T21:10:50.663Z,-11.93
2022-12-18T21:13:17.434Z,-11.97
2022-12-18T21:15:45.296Z,-11.89
2022-12-18T21:18:12.057Z,-11.92
2022-12-18T21:20:39.061Z,-12.01
2022-12-18T21:23:16.381Z,-11.98
2022-12-18T21:25:43.940Z,-11.98
2022-12-18T21:28:12.230Z,-12.06
2022-12-18T21:30:39.011Z,-11.90
2022-12-18T21:33:05.719Z,-12.03
2022-12-18T21:35:32.361Z,-12.01
2022-12-18T21:37:58.981Z,-11.92
2022-12-18T21:40:25.615Z,-11.99
2022-12-18T21:43:11.275Z,-11.97
2022-12-18T21:45:42.780Z,-11.96
2022-12-18T21:48:09.421Z,-11.94
2022-12-18T21:50:36.014Z,-12.01
2022-12-18T21:53:02.594Z,-12.11
2022-12-18T21:55:29.205Z,-12.01
2022-12-18T21:57:55.818Z,-11.90
2022-12-18T22:00:22.472Z,-11.85
2022-12-18T22:02:49.562Z,-11.74
2022-12-18T22:05:35.992Z,-11.87
2022-12-18T22:08:02.559Z,-11.83
2022-12-18T22:10:29.238Z,-11.68
2022-12-18T22:12:55.894Z,-11.80
2022-12-18T22:15:22.524Z,-11.94
2022-12-18T22:17:50.430Z,-11.91
2022-12-18T22:20:17.545Z,-11.88
2022-12-18T22:22:46.526Z,-11.86
2022-12-18T22:25:13.170Z,-11.94
2022-12-18T22:27:39.874Z,-11.87
2022-12-18T22:30:06.809Z,-11.88
2022-12-18T22:32:34.038Z,-11.87
2022-12-18T22:35:06.186Z,-11.89
2022-12-18T22:37:43.887Z,-12.01
2022-12-18T22:40:23.518Z,-12.07
2022-12-18T22:42:51.333Z,-12.09
2022-12-18T22:45:19.654Z,-12.15
2022-12-18T22:47:46.219Z,-12.05
2022-12-18T22:50:13.649Z,-11.98
2022-12-18T22:52:40.294Z,-12.01
2022-12-18T22:55:07.121Z,-11.96
2022-12-18T22:57:33.735Z,-11.90
2022-12-18T23:00:04.424Z,-11.90
2022-12-18T23:02:31.257Z,-12.05
2022-12-18T23:04:57.991Z,-11.84
2022-12-18T23:07:24.620Z,-12.01
2022-12-18T23:09:51.249Z,-11.91
2022-12-18T23:12:26.241Z,-11.90
2022-12-18T23:14:52.898Z,-11.81
2022-12-18T23:17:19.522Z,-11.77
2022-12-18T23:19:49.168Z,-11.87
2022-12-18T23:22:16.017Z,-11.82
2022-12-18T23:24:46.550Z,-11.77
2022-12-18T23:27:13.180Z,-11.87
2022-12-18T23:29:40.553Z,-11.90
2022-12-18T23:32:07.643Z,-11.88
2022-12-18T23:34:34.319Z,-11.84
2022-12-18T23:37:01.363Z,-11.86
2022-12-18T23:39:29.768Z,-11.80
2022-12-18T23:41:58.001Z,-11.76
2022-12-18T23:44:24.792Z,-11.75
2022-12-18T23:46:51.442Z,-11.72
2022-12-18T23:49:18.354Z,-11.90
2022-12-18T23:51:44.954Z,-11.78
2022-12-18T23:54:11.566Z,-11.82
2022-12-18T23:56:38.197Z,-11.72
2022-12-18T23:59:04.882Z,-11.60
